createdAt,value
2018-06-15T00:00:41.208Z,87.78
2018-06-15T00:03:09.913Z,88.02
2018-06-15T00:05:38.593Z,88.77
2018-06-15T00:08:07.234Z,88.48
2018-06-15T00:10:35.838Z,88.25
2018-06-15T00:13:04.455Z,87.91
2018-06-15T00:15:33.434Z,87.01
2018-06-15T00:18:02.201Z,86.59
2018-06-15T00:20:30.813Z,86.49
2018-06-15T00:22:59.486Z,87.01
2018-06-15T00:25:28.085Z,86.37
2018-06-15T00:27:56.829Z,86.20
2018-06-15T00:30:25.479Z,85.68
2018-06-15T00:32:54.209Z,85.83
2018-06-15T00:35:22.912Z,85.94
2018-06-15T00:37:51.533Z,85.94
2018-06-15T00:40:20.146Z,85.92
2018-06-15T00:42:48.752Z,85.84
2018-06-15T00:45:17.371Z,85.65
2018-06-15T00:47:45.976Z,85.30
2018-06-15T00:50:14.678Z,84.52
2018-06-15T00:52:43.442Z,84.58
2018-06-15T00:55:12.273Z,85.39
2018-06-15T00:57:49.076Z,85.70
2018-06-15T01:00:18.324Z,84.91
2018-06-15T01:02:47.212Z,85.00
2018-06-15T01:05:15.781Z,85.54
2018-06-15T01:07:44.583Z,85.79
2018-06-15T01:10:13.405Z,86.00
2018-06-15T01:12:42.055Z,85.54
2018-06-15T01:15:10.877Z,85.14
2018-06-15T01:17:39.489Z,85.48
2018-06-15T01:20:08.189Z,85.55
2018-06-15T01:22:36.840Z,85.38
2018-06-15T01:25:05.563Z,85.96
2018-06-15T01:27:34.293Z,86.00
2018-06-15T01:30:02.999Z,86.60
2018-06-15T01:32:32.001Z,86.94
2018-06-15T01:35:00.739Z,86.26
2018-06-15T01:37:29.537Z,87.31
2018-06-15T01:39:58.421Z,87.47
2018-06-15T01:42:27.287Z,87.71
2018-06-15T01:44:55.960Z,88.36
2018-06-15T01:47:24.696Z,88.27
2018-06-15T01:49:53.573Z,88.80
2018-06-15T01:52:22.371Z,89.37
2018-06-15T01:54:51.242Z,89.43
2018-06-15T01:57:22.221Z,89.61
2018-06-15T01:59:51.613Z,88.94
2018-06-15T02:02:20.341Z,89.18
2018-06-15T02:04:49.022Z,89.06
2018-06-15T02:07:17.990Z,89.30
2018-06-15T02:09:46.628Z,89.79
2018-06-15T02:12:15.293Z,89.80
2018-06-15T02:14:43.816Z,89.66
2018-06-15T02:17:12.422Z,89.41
2018-06-15T02:19:40.978Z,89.81
2018-06-15T02:22:09.537Z,89.74
2018-06-15T02:24:38.151Z,90.18
2018-06-15T02:27:06.660Z,91.11
2018-06-15T02:29:35.175Z,90.83
2018-06-15T02:32:03.704Z,91.22
2018-06-15T02:34:32.276Z,90.91
2018-06-15T02:37:00.826Z,91.53
2018-06-15T02:39:29.390Z,91.85
2018-06-15T02:41:57.939Z,91.57
2018-06-15T02:44:26.508Z,92.18
2018-06-15T02:46:55.021Z,91.91
2018-06-15T02:49:23.550Z,91.71
2018-06-15T02:51:52.070Z,91.49
2018-06-15T02:54:20.614Z,91.44
2018-06-15T02:56:49.199Z,91.45
2018-06-15T02:59:17.737Z,91.74
2018-06-15T03:01:46.300Z,91.94
2018-06-15T03:04:14.862Z,92.00
2018-06-15T03:06:43.396Z,92.21
2018-06-15T03:09:11.922Z,92.26
2018-06-15T03:11:40.477Z,92.69
2018-06-15T03:14:08.997Z,92.78
2018-06-15T03:16:37.542Z,93.04
2018-06-15T03:19:06.082Z,93.22
2018-06-15T03:21:34.650Z,92.91
2018-06-15T03:24:03.221Z,92.53
2018-06-15T03:26:31.744Z,92.84
2018-06-15T03:29:00.277Z,92.93
2018-06-15T03:31:28.828Z,91.82
2018-06-15T03:33:57.410Z,92.38
2018-06-15T03:36:25.934Z,92.12
2018-06-15T03:38:54.465Z,90.90
2018-06-15T03:41:22.990Z,89.54
2018-06-15T03:43:51.506Z,88.49
2018-06-15T03:46:20.077Z,87.43
2018-06-15T03:48:48.626Z,86.27
2018-06-15T03:51:17.206Z,84.93
2018-06-15T03:53:45.735Z,84.40
2018-06-15T03:56:14.368Z,84.44
2018-06-15T03:58:42.952Z,84.32
2018-06-15T04:01:11.510Z,84.51
2018-06-15T04:03:40.145Z,84.84
2018-06-15T04:06:08.735Z,85.32
2018-06-15T04:08:37.272Z,85.19
2018-06-15T04:11:05.808Z,85.33
2018-06-15T04:13:34.299Z,85.07
2018-06-15T04:16:02.857Z,85.06
2018-06-15T04:18:31.375Z,85.08
2018-06-15T04:20:59.952Z,84.49
2018-06-15T04:23:28.497Z,84.13
2018-06-15T04:25:57.059Z,84.10
2018-06-15T04:28:25.641Z,83.52
2018-06-15T04:30:54.186Z,82.86
2018-06-15T04:33:22.762Z,82.53
2018-06-15T04:35:51.276Z,82.55
2018-06-15T04:38:19.876Z,82.51
2018-06-15T04:40:48.426Z,82.40
2018-06-15T04:43:16.986Z,82.16
2018-06-15T04:45:45.534Z,81.54
2018-06-15T04:48:14.140Z,80.41
2018-06-15T04:50:42.752Z,79.27
2018-06-15T04:53:11.354Z,78.58
2018-06-15T04:55:40.005Z,77.77
2018-06-15T04:58:08.589Z,77.51
2018-06-15T05:00:37.122Z,76.61
2018-06-15T05:03:05.661Z,76.32
2018-06-15T05:05:34.217Z,75.86
2018-06-15T05:08:02.778Z,75.35
2018-06-15T05:10:31.294Z,75.31
2018-06-15T05:12:59.992Z,74.62
2018-06-15T05:15:28.634Z,74.74
2018-06-15T05:17:57.207Z,73.97
2018-06-15T05:20:25.750Z,72.86
2018-06-15T05:22:54.361Z,71.79
2018-06-15T05:25:23.010Z,71.02
2018-06-15T05:27:51.651Z,71.00
2018-06-15T05:30:20.202Z,73.33
2018-06-15T05:32:48.746Z,71.29
2018-06-15T05:35:17.387Z,64.09
2018-06-15T05:37:45.926Z,65.07
2018-06-15T05:40:14.500Z,67.39
2018-06-15T05:42:43.032Z,69.46
2018-06-15T05:45:11.562Z,70.16
2018-06-15T05:47:40.067Z,70.25
2018-06-15T05:50:08.695Z,70.63
2018-06-15T05:52:37.262Z,69.90
2018-06-15T05:55:05.887Z,68.98
2018-06-15T05:57:34.446Z,68.60
2018-06-15T06:00:03.030Z,68.19
2018-06-15T06:02:31.550Z,67.77
2018-06-15T06:05:00.083Z,67.04
2018-06-15T06:07:28.594Z,66.20
2018-06-15T06:09:57.154Z,67.65
2018-06-15T06:12:25.669Z,67.41
2018-06-15T06:14:54.233Z,66.92
2018-06-15T06:17:22.800Z,66.77
2018-06-15T06:19:51.333Z,66.52
2018-06-15T06:22:19.846Z,64.46
2018-06-15T06:24:48.393Z,65.30
2018-06-15T06:27:16.945Z,64.74
2018-06-15T06:29:45.460Z,64.02
2018-06-15T06:32:13.993Z,63.30
2018-06-15T06:34:42.530Z,64.18
2018-06-15T06:37:11.046Z,62.62
2018-06-15T06:39:39.557Z,61.58
2018-06-15T06:42:08.110Z,59.77
2018-06-15T06:44:37.805Z,57.32
2018-06-15T06:47:06.449Z,50.92
2018-06-15T06:49:35.025Z,53.19
2018-06-15T06:52:03.621Z,52.82
2018-06-15T06:54:32.153Z,52.78
2018-06-15T06:57:00.738Z,51.13
2018-06-15T06:59:29.277Z,50.70
2018-06-15T07:01:58.310Z,46.64
2018-06-15T07:04:27.329Z,47.29
2018-06-15T07:06:56.365Z,48.85
2018-06-15T07:09:25.590Z,47.68
2018-06-15T07:11:55.005Z,44.48
2018-06-15T07:14:24.109Z,35.05
2018-06-15T07:16:53.066Z,33.51
2018-06-15T07:19:22.825Z,30.67
2018-06-15T07:21:52.726Z,29.81
2018-06-15T07:24:21.529Z,28.55
2018-06-15T07:26:50.586Z,25.59
2018-06-15T07:29:19.485Z,23.71
2018-06-15T07:31:48.490Z,22.51
2018-06-15T07:34:17.659Z,22.70
2018-06-15T07:36:46.465Z,22.95
2018-06-15T07:39:15.240Z,23.04
2018-06-15T07:41:44.013Z,24.66
2018-06-15T07:44:13.421Z,24.16
2018-06-15T07:46:42.378Z,25.08
2018-06-15T07:49:11.248Z,25.00
2018-06-15T07:51:39.937Z,23.78
2018-06-15T07:54:08.641Z,22.83
2018-06-15T07:56:38.182Z,22.79
2018-06-15T07:59:07.169Z,21.57
2018-06-15T08:01:35.824Z,22.28
2018-06-15T08:04:07.494Z,22.00
2018-06-15T08:06:36.128Z,20.52
2018-06-15T08:09:07.447Z,20.44
2018-06-15T08:11:36.367Z,18.64
2018-06-15T08:14:05.076Z,18.47
2018-06-15T08:16:34.338Z,17.19
2018-06-15T08:19:02.911Z,20.05
2018-06-15T08:21:31.521Z,19.94
2018-06-15T08:24:00.285Z,20.54
2018-06-15T08:26:29.128Z,18.93
2018-06-15T08:28:57.776Z,18.63
2018-06-15T08:31:26.485Z,20.65
2018-06-15T08:33:55.109Z,18.83
2018-06-15T08:36:23.737Z,17.35
2018-06-15T08:38:52.473Z,17.18
2018-06-15T08:41:21.083Z,20.03
2018-06-15T08:43:49.800Z,22.09
2018-06-15T08:46:18.553Z,22.13
2018-06-15T08:48:47.169Z,19.71
2018-06-15T08:51:15.882Z,18.65
2018-06-15T08:53:44.541Z,16.12
2018-06-15T08:56:13.201Z,16.18
2018-06-15T08:58:41.890Z,19.52
2018-06-15T09:01:11.329Z,19.47
2018-06-15T09:03:40.095Z,22.33
2018-06-15T09:06:09.264Z,20.28
2018-06-15T09:08:38.114Z,19.68
2018-06-15T09:11:09.379Z,26.17
2018-06-15T09:13:38.116Z,25.35
2018-06-15T09:16:06.763Z,26.22
2018-06-15T09:18:36.619Z,27.22
2018-06-15T09:21:05.664Z,29.12
2018-06-15T09:23:34.338Z,25.86
2018-06-15T09:26:03.079Z,23.99
2018-06-15T09:28:32.054Z,25.29
2018-06-15T09:31:00.981Z,25.24
2018-06-15T09:33:31.253Z,26.47
2018-06-15T09:36:03.815Z,28.08
2018-06-15T09:38:32.631Z,27.80
2018-06-15T09:41:01.574Z,22.71
2018-06-15T09:43:31.864Z,20.87
2018-06-15T09:46:01.526Z,21.18
2018-06-15T09:48:31.231Z,24.04
2018-06-15T09:51:00.070Z,26.12
2018-06-15T09:53:32.994Z,27.11
2018-06-15T09:56:01.710Z,26.89
2018-06-15T09:58:31.612Z,28.90
2018-06-15T10:01:05.534Z,28.09
2018-06-15T10:03:35.172Z,28.41
2018-06-15T10:06:05.413Z,31.65
2018-06-15T10:08:34.615Z,29.72
2018-06-15T10:11:03.458Z,31.09
2018-06-15T10:13:32.360Z,31.20
2018-06-15T10:16:01.079Z,30.82
2018-06-15T10:18:30.378Z,32.00
2018-06-15T10:20:59.161Z,31.46
2018-06-15T10:23:27.730Z,30.83
2018-06-15T10:25:56.317Z,31.00
2018-06-15T10:28:24.856Z,31.56
2018-06-15T10:30:53.492Z,30.70
2018-06-15T10:33:22.068Z,30.81
2018-06-15T10:35:50.635Z,29.44
2018-06-15T10:38:19.247Z,30.25
2018-06-15T10:40:47.817Z,31.18
2018-06-15T10:43:16.384Z,30.31
2018-06-15T10:45:44.986Z,30.43
2018-06-15T10:48:13.946Z,30.58
2018-06-15T10:50:42.733Z,30.93
2018-06-15T10:53:11.303Z,28.27
2018-06-15T10:55:39.870Z,25.14
2018-06-15T10:58:08.424Z,22.02
2018-06-15T11:00:37.013Z,21.07
2018-06-15T11:03:05.667Z,19.14
2018-06-15T11:05:34.237Z,19.84
2018-06-15T11:08:02.768Z,21.13
2018-06-15T11:10:31.330Z,19.47
2018-06-15T11:12:59.942Z,19.28
2018-06-15T11:15:28.512Z,19.58
2018-06-15T11:17:57.128Z,20.60
2018-06-15T11:20:25.661Z,22.68
2018-06-15T11:22:54.230Z,24.48
2018-06-15T11:25:22.827Z,25.20
2018-06-15T11:27:51.398Z,27.96
2018-06-15T11:30:19.933Z,25.17
2018-06-15T11:32:48.455Z,26.56
2018-06-15T11:35:17.143Z,29.49
2018-06-15T11:37:45.709Z,30.45
2018-06-15T11:40:14.253Z,30.84
2018-06-15T11:42:42.874Z,32.65
2018-06-15T11:45:11.409Z,32.42
2018-06-15T11:47:39.966Z,30.53
2018-06-15T11:50:08.501Z,30.68
2018-06-15T11:52:37.037Z,34.20
2018-06-15T11:55:05.804Z,31.10
2018-06-15T11:57:34.438Z,32.62
2018-06-15T12:00:02.976Z,32.99
2018-06-15T12:02:31.526Z,33.51
2018-06-15T12:05:00.074Z,33.54
2018-06-15T12:07:28.642Z,33.51
2018-06-15T12:09:57.137Z,34.62
2018-06-15T12:12:25.664Z,35.00
2018-06-15T12:14:54.261Z,34.01
2018-06-15T12:17:22.821Z,33.47
2018-06-15T12:19:51.453Z,34.00
2018-06-15T12:22:20.003Z,35.25
2018-06-15T12:24:48.646Z,33.59
2018-06-15T12:27:17.220Z,34.37
2018-06-15T12:29:45.742Z,34.23
2018-06-15T12:32:14.301Z,35.99
2018-06-15T12:34:42.855Z,36.22
2018-06-15T12:37:11.386Z,36.83
2018-06-15T12:39:39.934Z,35.47
2018-06-15T12:42:08.453Z,31.99
2018-06-15T12:44:37.061Z,35.65
2018-06-15T12:47:05.586Z,33.85
2018-06-15T12:49:34.125Z,30.96
2018-06-15T12:52:02.652Z,35.41
2018-06-15T12:54:31.222Z,34.69
2018-06-15T12:56:59.873Z,34.47
2018-06-15T12:59:28.459Z,35.69
2018-06-15T13:01:57.053Z,34.21
2018-06-15T13:04:26.211Z,36.03
2018-06-15T13:06:54.781Z,33.21
2018-06-15T13:09:23.285Z,34.98
2018-06-15T13:11:51.843Z,36.29
2018-06-15T13:14:20.429Z,36.76
2018-06-15T13:16:48.959Z,35.22
2018-06-15T13:19:17.533Z,36.16
2018-06-15T13:21:46.111Z,38.54
2018-06-15T13:24:14.654Z,36.21
2018-06-15T13:26:43.211Z,36.29
2018-06-15T13:29:11.745Z,40.32
2018-06-15T13:31:40.273Z,38.97
2018-06-15T13:34:08.805Z,35.23
2018-06-15T13:36:37.339Z,34.82
2018-06-15T13:39:09.725Z,37.51
2018-06-15T13:41:38.262Z,34.88
2018-06-15T13:44:06.776Z,36.39
2018-06-15T13:46:35.647Z,34.54
2018-06-15T13:49:04.206Z,33.84
2018-06-15T13:51:32.747Z,35.27
2018-06-15T13:54:01.261Z,38.16
2018-06-15T13:56:29.818Z,37.04
2018-06-15T13:58:58.376Z,35.24
2018-06-15T14:01:26.937Z,37.27
2018-06-15T14:03:55.479Z,38.16
2018-06-15T14:06:24.019Z,33.91
2018-06-15T14:08:52.522Z,33.78
2018-06-15T14:11:21.058Z,37.44
2018-06-15T14:13:49.627Z,35.54
2018-06-15T14:16:18.193Z,38.77
2018-06-15T14:18:50.258Z,33.84
2018-06-15T14:21:18.816Z,35.31
2018-06-15T14:23:47.334Z,37.18
2018-06-15T14:26:15.885Z,36.18
2018-06-15T14:28:44.389Z,35.16
2018-06-15T14:31:12.928Z,34.92
2018-06-15T14:33:41.437Z,38.52
2018-06-15T14:36:10.089Z,36.81
2018-06-15T14:38:38.640Z,36.02
2018-06-15T14:41:07.184Z,37.14
2018-06-15T14:43:35.848Z,39.51
2018-06-15T14:46:04.339Z,37.79
2018-06-15T14:48:32.886Z,37.76
2018-06-15T14:51:01.388Z,37.44
2018-06-15T14:53:29.927Z,36.10
2018-06-15T14:55:58.457Z,35.92
2018-06-15T14:58:27.154Z,35.49
2018-06-15T15:00:55.739Z,37.44
2018-06-15T15:03:24.265Z,41.20
2018-06-15T15:05:52.818Z,41.70
2018-06-15T15:08:21.366Z,36.45
2018-06-15T15:10:49.894Z,38.15
2018-06-15T15:13:18.505Z,36.47
2018-06-15T15:15:47.122Z,39.12
2018-06-15T15:18:15.800Z,37.24
2018-06-15T15:20:44.327Z,38.56
2018-06-15T15:23:12.953Z,37.55
2018-06-15T15:25:41.603Z,35.91
2018-06-15T15:28:10.141Z,37.34
2018-06-15T15:30:38.650Z,36.88
2018-06-15T15:33:07.224Z,37.61
2018-06-15T15:35:35.747Z,38.11
2018-06-15T15:38:04.266Z,36.90
2018-06-15T15:40:32.786Z,39.29
2018-06-15T15:43:01.302Z,38.74
2018-06-15T15:45:29.851Z,37.47
2018-06-15T15:47:58.375Z,35.50
2018-06-15T15:50:26.934Z,35.95
2018-06-15T15:52:55.474Z,36.43
2018-06-15T15:55:24.011Z,35.22
2018-06-15T15:57:52.624Z,36.45
2018-06-15T16:00:21.166Z,37.39
2018-06-15T16:02:49.696Z,38.53
2018-06-15T16:05:18.224Z,34.51
2018-06-15T16:07:46.745Z,36.92
2018-06-15T16:10:15.331Z,37.89
2018-06-15T16:12:43.921Z,38.04
2018-06-15T16:15:12.553Z,38.51
2018-06-15T16:17:41.147Z,41.05
2018-06-15T16:20:09.799Z,40.37
2018-06-15T16:22:38.365Z,38.05
2018-06-15T16:25:06.897Z,39.58
2018-06-15T16:27:35.425Z,40.06
2018-06-15T16:30:04.039Z,39.09
2018-06-15T16:32:32.537Z,40.34
2018-06-15T16:35:01.168Z,40.52
2018-06-15T16:37:29.738Z,40.83
2018-06-15T16:39:58.267Z,41.53
2018-06-15T16:42:26.794Z,40.59
2018-06-15T16:44:55.291Z,41.09
2018-06-15T16:47:23.799Z,40.63
2018-06-15T16:49:52.313Z,41.68
2018-06-15T16:52:20.844Z,41.34
2018-06-15T16:54:49.375Z,40.49
2018-06-15T16:57:17.884Z,41.48
2018-06-15T16:59:46.378Z,40.06
2018-06-15T17:02:14.884Z,39.30
2018-06-15T17:04:43.373Z,39.93
2018-06-15T17:07:11.913Z,42.14
2018-06-15T17:09:40.422Z,41.11
2018-06-15T17:12:08.955Z,41.49
2018-06-15T17:14:37.466Z,41.12
2018-06-15T17:17:06.043Z,41.49
2018-06-15T17:19:34.553Z,41.25
2018-06-15T17:22:03.090Z,40.61
2018-06-15T17:24:31.589Z,41.98
2018-06-15T17:27:00.162Z,40.85
2018-06-15T17:29:28.720Z,42.60
2018-06-15T17:31:57.275Z,41.31
2018-06-15T17:34:25.792Z,41.42
2018-06-15T17:36:54.336Z,42.09
2018-06-15T17:39:22.881Z,41.73
2018-06-15T17:41:51.397Z,41.85
2018-06-15T17:44:19.950Z,41.70
2018-06-15T17:46:48.502Z,41.94
2018-06-15T17:49:17.073Z,42.42
2018-06-15T17:51:45.585Z,43.48
2018-06-15T17:54:14.137Z,43.63
2018-06-15T17:56:42.649Z,43.47
2018-06-15T17:59:11.181Z,44.56
2018-06-15T18:01:39.695Z,44.89
2018-06-15T18:04:08.228Z,44.26
2018-06-15T18:06:36.745Z,43.67
2018-06-15T18:09:09.397Z,45.14
2018-06-15T18:11:38.044Z,44.27
2018-06-15T18:14:06.649Z,45.12
2018-06-15T18:16:35.317Z,45.85
2018-06-15T18:19:03.881Z,46.76
2018-06-15T18:21:32.470Z,46.79
2018-06-15T18:24:01.065Z,46.43
2018-06-15T18:26:29.626Z,46.50
2018-06-15T18:28:58.179Z,46.73
2018-06-15T18:31:26.717Z,46.68
2018-06-15T18:33:55.368Z,48.13
2018-06-15T18:36:23.910Z,48.51
2018-06-15T18:38:52.452Z,48.30
2018-06-15T18:41:21.035Z,51.38
2018-06-15T18:43:49.621Z,46.67
2018-06-15T18:46:18.171Z,47.87
2018-06-15T18:48:47.327Z,47.40
2018-06-15T18:51:18.035Z,48.38
2018-06-15T18:53:46.641Z,49.01
2018-06-15T18:56:15.354Z,48.41
2018-06-15T18:58:43.969Z,49.33
2018-06-15T19:01:12.670Z,49.93
2018-06-15T19:03:42.353Z,50.34
2018-06-15T19:06:11.075Z,49.86
2018-06-15T19:08:39.712Z,50.40
2018-06-15T19:11:08.399Z,51.45
2018-06-15T19:13:37.322Z,51.31
2018-06-15T19:16:06.520Z,51.32
2018-06-15T19:18:35.419Z,51.60
2018-06-15T19:21:04.326Z,51.79
2018-06-15T19:23:33.044Z,51.58
2018-06-15T19:26:02.041Z,52.39
2018-06-15T19:28:30.857Z,53.17
2018-06-15T19:30:59.469Z,52.83
2018-06-15T19:33:28.930Z,53.47
2018-06-15T19:35:57.469Z,53.38
2018-06-15T19:38:25.989Z,53.67
2018-06-15T19:40:54.614Z,53.72
2018-06-15T19:43:23.203Z,53.75
2018-06-15T19:45:51.782Z,54.09
2018-06-15T19:48:20.484Z,54.80
2018-06-15T19:50:49.053Z,54.93
2018-06-15T19:53:17.581Z,54.70
2018-06-15T19:55:46.147Z,54.97
2018-06-15T19:58:14.884Z,57.42
2018-06-15T20:00:43.492Z,57.62
2018-06-15T20:03:12.052Z,57.52
2018-06-15T20:05:40.777Z,56.90
2018-06-15T20:08:09.361Z,56.82
2018-06-15T20:10:37.977Z,56.46
2018-06-15T20:13:06.510Z,57.03
2018-06-15T20:15:35.114Z,59.42
2018-06-15T20:18:03.754Z,59.55
2018-06-15T20:20:32.397Z,59.39
2018-06-15T20:23:00.958Z,60.76
2018-06-15T20:25:29.553Z,60.42
2018-06-15T20:27:58.107Z,60.87
2018-06-15T20:30:26.641Z,61.94
2018-06-15T20:32:55.192Z,62.20
2018-06-15T20:35:23.718Z,64.41
2018-06-15T20:37:52.216Z,64.62
2018-06-15T20:40:20.767Z,62.33
2018-06-15T20:42:49.292Z,63.71
2018-06-15T20:45:17.876Z,62.99
2018-06-15T20:47:46.503Z,63.89
2018-06-15T20:50:15.109Z,63.54
2018-06-15T20:52:43.660Z,65.35
2018-06-15T20:55:12.293Z,66.86
2018-06-15T20:57:40.864Z,67.75
2018-06-15T21:00:09.453Z,67.93
2018-06-15T21:02:38.016Z,68.56
2018-06-15T21:05:06.659Z,69.03
2018-06-15T21:07:35.375Z,68.75
2018-06-15T21:10:03.930Z,68.49
2018-06-15T21:12:32.445Z,67.63
2018-06-15T21:15:01.068Z,68.44
2018-06-15T21:17:29.582Z,69.23
2018-06-15T21:19:58.139Z,70.90
2018-06-15T21:22:26.914Z,71.96
2018-06-15T21:24:55.436Z,72.95
2018-06-15T21:27:23.989Z,73.57
2018-06-15T21:29:52.501Z,74.41
2018-06-15T21:32:21.025Z,74.85
2018-06-15T21:34:49.640Z,75.14
2018-06-15T21:37:18.181Z,75.41
2018-06-15T21:39:46.749Z,76.03
2018-06-15T21:42:15.380Z,76.59
2018-06-15T21:44:43.863Z,77.47
2018-06-15T21:47:12.442Z,77.82
2018-06-15T21:49:41.127Z,79.32
2018-06-15T21:52:09.674Z,80.51
2018-06-15T21:54:38.306Z,80.82
2018-06-15T21:57:06.874Z,80.63
2018-06-15T21:59:35.363Z,80.57
2018-06-15T22:02:04.037Z,80.50
2018-06-15T22:04:32.620Z,81.51
2018-06-15T22:07:01.205Z,81.66
2018-06-15T22:09:29.769Z,81.91
2018-06-15T22:11:58.361Z,82.34
2018-06-15T22:14:26.911Z,82.23
2018-06-15T22:16:55.537Z,82.32
2018-06-15T22:19:24.695Z,82.42
2018-06-15T22:21:54.277Z,82.35
2018-06-15T22:24:23.660Z,82.64
2018-06-15T22:26:52.554Z,82.87
2018-06-15T22:29:21.104Z,83.16
2018-06-15T22:31:49.840Z,83.00
2018-06-15T22:34:18.341Z,83.09
2018-06-15T22:36:47.030Z,82.73
2018-06-15T22:39:16.352Z,83.26
2018-06-15T22:41:44.945Z,83.52
2018-06-15T22:44:14.191Z,83.65
2018-06-15T22:46:43.236Z,83.50
2018-06-15T22:49:12.381Z,83.53
2018-06-15T22:51:42.148Z,82.96
2018-06-15T22:54:10.762Z,83.30
2018-06-15T22:56:39.311Z,83.42
2018-06-15T22:59:07.860Z,83.30
2018-06-15T23:01:36.409Z,83.83
2018-06-15T23:04:05.007Z,83.73
2018-06-15T23:06:33.742Z,83.70
2018-06-15T23:09:02.332Z,84.68
2018-06-15T23:11:30.985Z,85.22
2018-06-15T23:13:59.540Z,85.84
2018-06-15T23:16:28.104Z,86.42
2018-06-15T23:18:56.780Z,86.35
2018-06-15T23:21:25.321Z,86.44
2018-06-15T23:23:53.870Z,87.44
2018-06-15T23:26:22.576Z,88.52
2018-06-15T23:28:51.137Z,88.37
2018-06-15T23:31:19.720Z,88.22
2018-06-15T23:33:48.272Z,88.66
2018-06-15T23:36:16.870Z,88.53
2018-06-15T23:38:45.653Z,88.47
2018-06-15T23:41:14.256Z,88.98
2018-06-15T23:43:42.817Z,89.04
2018-06-15T23:46:11.605Z,89.04
2018-06-15T23:48:40.171Z,89.51
2018-06-15T23:51:08.826Z,89.48
2018-06-15T23:53:37.339Z,89.44
2018-06-15T23:56:06.377Z,89.52
2018-06-15T23:58:34.951Z,89.07
